METAR Data
IDs: Format: Raw Decoded Include TAF

Data at: 1837 UTC 16 Oct 2021

KODO 161753Z AUTO 10007G18KT 10SM CLR 18/M05 A3045 RMK AO2 SLP288 60000 T01831050 10189 20044 58005 $
KODO 161653Z AUTO 14007G14KT 10SM CLR 17/M02 A3047 RMK AO2 RAE03 SLP295 P0000 T01721022 $
KODO 161553Z AUTO 13011KT 10SM -RA CLR 16/M02 A3047 RMK AO2 SLP294 P0000 T01611017 $
KODO 161453Z AUTO 15009KT 10SM -RA CLR 13/00 A3046 RMK AO2 RAB41 SLP294 P0000 60000 T01330000 51019 $
KODO 161353Z AUTO 00000KT 10SM CLR 08/M01 A3044 RMK AO2 SLP290 T00831011 $
KODO 161253Z AUTO 07008KT 10SM CLR 04/M02 A3042 RMK AO2 SLP286 T00441022 $
KODO 161153Z AUTO 07008KT 10SM CLR 05/M02 A3040 RMK AO2 SLP275 T00501017 10083 20050 53005 $
KODO 161053Z AUTO 10007KT 10SM CLR 06/M01 A3039 RMK AO2 SLP269 T00611011 $
KODO 160953Z AUTO 10005KT 10SM CLR 06/M02 A3039 RMK AO2 SLP266 T00611017 $
KODO 160853Z AUTO 08007KT 10SM CLR 07/M02 A3039 RMK AO2 SLP266 T00671017 51003 $
KODO 160753Z AUTO 07008KT 10SM CLR 07/M02 A3039 RMK AO2 SLP266 T00671022
KODO 160653Z AUTO 07007KT 10SM CLR 07/M03 A3039 RMK AO2 SLP267 T00721028
KODO 160553Z AUTO 06007KT 10SM CLR 09/M03 A3038 RMK AO2 SLP263 T00891033 10194 20089 402280089 51018
KODO 160453Z AUTO 04007KT 10SM CLR 11/M03 A3037 RMK AO2 SLP260 T01061033
KODO 160353Z AUTO 03007KT 10SM CLR 12/M03 A3035 RMK AO2 SLP253 T01171033
KODO 160253Z AUTO 04007KT 10SM CLR 13/M03 A3032 RMK AO2 SLP243 T01331028 53023
KODO 160153Z AUTO 04007KT 10SM CLR 15/M03 A3030 RMK AO2 SLP236 T01501028
KODO 160053Z AUTO 04007KT 10SM CLR 17/M03 A3027 RMK AO2 SLP225 T01671033
KODO 152353Z AUTO 04009KT 10SM CLR 19/M03 A3025 RMK AO2 SLP215 T01941028 10228 20194 53011
KODO 152253Z AUTO 03012KT 10SM CLR 21/M03 A3023 RMK AO2 SLP207 T02111033
KODO 152153Z AUTO 06011KT 10SM CLR 22/M03 A3022 RMK AO2 SLP203 T02221028
KODO 152053Z AUTO 03015G20KT 10SM CLR 22/M02 A3021 RMK AO2 SLP198 T02221022 56009
KODO 151953Z AUTO 01012G20KT 10SM CLR 21/M01 A3022 RMK AO2 SLP199 T02111006
KODO 151853Z AUTO 04014KT 10SM CLR 21/00 A3023 RMK AO2 SLP202 T02110000 $
KODO 151753Z AUTO 03015KT 10SM CLR 20/02 A3024 RMK AO2 SLP208 T02000017 10200 20106 51013 $
KODO 151653Z AUTO 03015G20KT 10SM CLR 18/03 A3024 RMK AO2 SLP205 T01830028 $
KODO 151553Z AUTO 01012KT 10SM CLR 16/03 A3023 RMK AO2 SLP206 T01610028 $
KODO 151453Z AUTO 01016G21KT 10SM CLR 14/02 A3020 RMK AO2 SLP195 T01390022 53037 $
KODO 151353Z AUTO 36012G20KT 10SM CLR 12/01 A3015 RMK AO2 SLP179 T01170006 $
KODO 151253Z AUTO 01011KT 10SM CLR 11/M03 A3011 RMK AO2 SLP165 T01111028 $
KODO 151153Z AUTO 35008KT 10SM CLR 12/M06 A3008 RMK AO2 SLP150 T01171061 10189 20117 53028 $
KODO 151053Z AUTO 32006KT 10SM CLR 12/M07 A3004 RMK AO2 SLP136 T01221072 $
KODO 150953Z AUTO 32003KT 10SM CLR 13/M06 A3000 RMK AO2 SLP122 T01281061
KODO 150853Z AUTO 28005KT 10SM CLR 14/M06 A2999 RMK AO2 SLP116 T01391061 51009
KODO 150753Z AUTO 24005KT 10SM CLR 16/M07 A2998 RMK AO2 SLP112 T01611067
KODO 150653Z AUTO 32008KT 10SM CLR 19/M07 A2997 RMK AO2 SLP105 T01891067